Time;durP1;ratioP1;P1;durP2;ratioP2;P2;SDS_P1;SDS_P2;PMS_P1;PMS_P2;Temp;Humidity;BMP_temperature;BMP_pressure;BME280_temperature;BME280_humidity;BME280_pressure;Samples;Min_cycle;Max_cycle;Signal;HPM_P1;HPM_P2
2023/07/19 00:00:14;;;;;;;9.35;4.57;;;16.00;99.90;;;;;;5105736;27;20103;-62
2023/07/19 00:02:40;;;;;;;14.00;4.57;;;16.00;99.90;;;;;;5106397;27;20059;-62
2023/07/19 00:05:08;;;;;;;11.48;5.65;;;16.00;99.90;;;;;;5094191;27;20046;-63
2023/07/19 00:07:33;;;;;;;12.90;5.70;;;16.00;99.90;;;;;;5125380;27;20043;-64
2023/07/19 00:09:59;;;;;;;12.95;5.10;;;16.00;99.90;;;;;;5106316;27;20037;-63
2023/07/19 00:12:24;;;;;;;13.07;5.85;;;16.00;99.90;;;;;;5104015;27;20114;-63
2023/07/19 00:14:50;;;;;;;10.60;5.38;;;16.00;99.90;;;;;;5105710;27;20074;-63
2023/07/19 00:17:16;;;;;;;10.85;5.38;;;16.00;99.90;;;;;;5106861;27;20043;-62
2023/07/19 00:19:41;;;;;;;8.70;5.35;;;16.00;99.90;;;;;;5124052;27;20047;-62
2023/07/19 00:22:08;;;;;;;8.20;5.57;;;16.00;99.90;;;;;;5083513;28;20046;-64
2023/07/19 00:24:34;;;;;;;11.13;5.72;;;16.00;99.90;;;;;;5097351;28;20118;-62
2023/07/19 00:26:59;;;;;;;14.45;5.35;;;16.00;99.90;;;;;;5103390;27;20162;-63
2023/07/19 00:29:25;;;;;;;13.77;5.70;;;16.00;99.90;;;;;;5102397;27;20035;-62
2023/07/19 00:31:50;;;;;;;10.35;5.65;;;16.00;99.90;;;;;;5103575;27;20089;-62
2023/07/19 00:34:16;;;;;;;8.90;5.35;;;16.00;99.90;;;;;;5125064;27;20532;-63
2023/07/19 00:36:42;;;;;;;9.82;6.30;;;16.00;99.90;;;;;;5089965;28;20031;-62
2023/07/19 00:39:07;;;;;;;10.82;6.32;;;16.00;99.90;;;;;;5085380;28;20081;-62
2023/07/19 00:41:33;;;;;;;13.48;7.05;;;15.90;99.90;;;;;;5103788;28;20347;-63
2023/07/19 00:43:59;;;;;;;12.52;7.18;;;15.90;99.90;;;;;;5106017;28;20043;-63
2023/07/19 00:46:25;;;;;;;13.30;6.68;;;15.80;99.90;;;;;;5105357;28;20359;-63
2023/07/19 00:48:51;;;;;;;11.30;6.43;;;15.80;99.90;;;;;;5124226;28;20035;-64
2023/07/19 00:51:18;;;;;;;11.45;6.35;;;15.70;99.90;;;;;;5105589;28;20043;-63
2023/07/19 00:53:47;;;;;;;11.90;5.68;;;15.70;99.90;;;;;;5105396;28;20523;-62
2023/07/19 00:56:13;;;;;;;12.10;6.63;;;15.70;99.90;;;;;;5105888;28;20039;-63
2023/07/19 00:58:40;;;;;;;12.85;6.65;;;15.70;99.90;;;;;;5114669;28;20131;-63
2023/07/19 01:01:06;;;;;;;10.85;7.03;;;15.70;99.90;;;;;;5117201;28;20062;-63
2023/07/19 01:03:32;;;;;;;13.68;6.78;;;15.70;99.90;;;;;;5105286;28;20486;-63
2023/07/19 01:05:59;;;;;;;12.10;6.32;;;15.60;99.90;;;;;;5124113;28;20080;-63
2023/07/19 01:08:26;;;;;;;10.52;6.50;;;15.60;99.90;;;;;;5104621;28;20066;-63
2023/07/19 01:10:52;;;;;;;11.50;6.80;;;15.60;99.90;;;;;;5123302;28;20052;-62
2023/07/19 01:13:17;;;;;;;15.13;7.65;;;15.60;99.90;;;;;;5122757;28;20046;-64
2023/07/19 01:15:43;;;;;;;14.85;7.15;;;15.60;99.90;;;;;;5104929;28;20846;-64
2023/07/19 01:18:09;;;;;;;14.88;7.25;;;15.60;99.90;;;;;;5105962;28;20067;-62
2023/07/19 01:20:35;;;;;;;12.65;7.00;;;15.60;99.90;;;;;;5123830;28;20039;-61
2023/07/19 01:23:02;;;;;;;13.45;7.22;;;15.60;99.90;;;;;;5105567;28;20043;-61
2023/07/19 01:25:28;;;;;;;12.13;7.35;;;15.60;99.90;;;;;;5088869;28;20102;-62
2023/07/19 01:27:53;;;;;;;11.43;6.55;;;15.70;99.90;;;;;;5104003;28;20077;-62
2023/07/19 01:30:19;;;;;;;13.40;7.35;;;15.70;99.90;;;;;;5122738;28;20068;-62
2023/07/19 01:32:45;;;;;;;12.25;7.00;;;15.70;99.90;;;;;;5088178;28;20111;-62
2023/07/19 01:35:11;;;;;;;10.25;6.78;;;15.70;99.90;;;;;;5105476;28;20043;-62
2023/07/19 01:37:36;;;;;;;13.52;7.15;;;15.70;99.90;;;;;;5106342;28;20051;-63
2023/07/19 01:40:04;;;;;;;12.25;7.07;;;15.70;99.90;;;;;;5112918;28;20151;-62
2023/07/19 01:42:30;;;;;;;14.40;8.25;;;15.80;99.90;;;;;;5087477;27;20035;-63
2023/07/19 01:44:56;;;;;;;13.10;7.57;;;15.80;99.90;;;;;;5108492;27;20035;-63
2023/07/19 01:47:22;;;;;;;11.18;6.60;;;15.80;99.90;;;;;;5109372;27;20039;-62
2023/07/19 01:49:47;;;;;;;15.10;7.57;;;15.70;99.90;;;;;;5090858;27;20565;-63
2023/07/19 01:52:13;;;;;;;11.52;7.22;;;15.80;99.90;;;;;;5127227;27;20071;-63
2023/07/19 01:54:39;;;;;;;10.57;7.30;;;15.80;99.90;;;;;;5098697;27;20804;-63
2023/07/19 01:57:05;;;;;;;12.15;7.18;;;15.80;99.90;;;;;;5094038;27;20031;-63
2023/07/19 01:59:31;;;;;;;13.23;7.82;;;15.80;99.90;;;;;;5088593;27;20051;-64
2023/07/19 02:01:57;;;;;;;11.40;6.60;;;15.80;99.90;;;;;;5126715;27;20055;-63
2023/07/19 02:04:22;;;;;;;11.35;6.70;;;15.80;99.90;;;;;;5108508;27;20516;-63
2023/07/19 02:06:48;;;;;;;14.30;7.68;;;15.80;99.90;;;;;;5091846;27;20125;-63
2023/07/19 02:09:14;;;;;;;10.02;6.55;;;15.80;99.90;;;;;;5126627;27;20039;-65
2023/07/19 02:11:40;;;;;;;11.82;6.93;;;15.80;99.90;;;;;;5106419;27;20575;-64
2023/07/19 02:14:06;;;;;;;13.15;6.80;;;15.80;99.90;;;;;;5126908;27;20139;-62
2023/07/19 02:16:32;;;;;;;13.55;6.53;;;15.80;99.90;;;;;;5108363;27;20096;-64
2023/07/19 02:18:58;;;;;;;11.27;6.53;;;15.80;99.90;;;;;;5126964;27;20045;-64
2023/07/19 02:21:24;;;;;;;11.32;6.47;;;15.80;99.90;;;;;;5108244;27;20103;-63
2023/07/19 02:23:50;;;;;;;10.93;6.30;;;15.70;99.90;;;;;;5125236;27;20066;-64
2023/07/19 02:26:15;;;;;;;12.27;6.43;;;15.70;99.90;;;;;;5107620;27;20039;-65
2023/07/19 02:28:42;;;;;;;12.43;6.70;;;15.70;99.90;;;;;;5102101;28;20043;-63
2023/07/19 02:31:07;;;;;;;11.85;5.90;;;15.80;99.90;;;;;;5100445;27;20039;-63
2023/07/19 02:33:33;;;;;;;12.65;6.30;;;15.80;99.90;;;;;;5090736;27;20472;-63
2023/07/19 02:35:58;;;;;;;13.82;6.10;;;15.80;99.90;;;;;;5108643;27;20746;-62
2023/07/19 02:38:25;;;;;;;13.10;5.65;;;15.80;99.90;;;;;;5126936;27;20047;-64
2023/07/19 02:40:58;;;;;;;9.85;5.80;;;15.80;99.90;;;;;;5107030;27;20114;-62
2023/07/19 02:43:24;;;;;;;12.90;5.40;;;15.80;99.90;;;;;;5095848;28;20048;-63
2023/07/19 02:45:51;;;;;;;10.23;5.15;;;15.80;99.90;;;;;;5098499;27;20054;-62
2023/07/19 02:48:16;;;;;;;10.13;4.93;;;15.80;99.90;;;;;;5106896;27;20043;-64
2023/07/19 02:50:46;;;;;;;11.93;5.70;;;15.80;99.90;;;;;;5107359;27;20150;-63
2023/07/19 02:53:12;;;;;;;12.00;5.82;;;15.80;99.90;;;;;;5089544;28;20495;-63
2023/07/19 02:55:37;;;;;;;10.30;5.80;;;15.90;99.90;;;;;;5107062;27;20035;-63
2023/07/19 02:58:03;;;;;;;9.50;5.60;;;15.80;99.90;;;;;;5094639;27;20039;-63
2023/07/19 03:00:29;;;;;;;12.32;5.65;;;15.80;99.90;;;;;;5106092;27;20039;-64
2023/07/19 03:02:55;;;;;;;13.05;5.93;;;15.80;99.90;;;;;;5125850;27;20589;-63
2023/07/19 03:05:22;;;;;;;11.65;5.30;;;15.80;99.90;;;;;;5106877;27;20096;-63
2023/07/19 03:07:48;;;;;;;10.23;5.45;;;15.80;99.90;;;;;;5091236;27;20045;-63
2023/07/19 03:10:14;;;;;;;12.05;6.35;;;15.80;99.90;;;;;;5106252;27;20100;-64
2023/07/19 03:12:40;;;;;;;8.60;5.80;;;15.80;99.90;;;;;;5124058;27;20043;-64
2023/07/19 03:15:06;;;;;;;11.98;6.05;;;15.80;99.90;;;;;;5090271;27;20046;-63
2023/07/19 03:17:32;;;;;;;12.68;6.32;;;15.80;99.90;;;;;;5090881;27;20077;-63
2023/07/19 03:19:57;;;;;;;12.18;5.88;;;15.80;99.90;;;;;;5107190;27;20107;-63
2023/07/19 03:22:23;;;;;;;11.77;5.78;;;15.80;99.90;;;;;;5107705;27;20042;-64
2023/07/19 03:24:49;;;;;;;11.45;6.13;;;15.80;99.90;;;;;;5105726;27;20039;-63
2023/07/19 03:27:14;;;;;;;12.10;6.25;;;15.80;99.90;;;;;;5105458;27;20130;-63
2023/07/19 03:29:40;;;;;;;13.27;6.35;;;15.80;99.90;;;;;;5106586;27;20039;-64
2023/07/19 03:32:06;;;;;;;15.40;6.43;;;15.80;99.90;;;;;;5107585;27;20098;-64
2023/07/19 03:34:32;;;;;;;12.10;5.97;;;15.70;99.90;;;;;;5124668;27;20869;-64
2023/07/19 03:36:58;;;;;;;11.32;5.72;;;15.80;99.90;;;;;;5106945;27;20084;-63
2023/07/19 03:39:24;;;;;;;10.63;5.57;;;15.70;99.90;;;;;;5124101;27;20026;-63
2023/07/19 03:41:50;;;;;;;11.43;5.82;;;15.70;99.90;;;;;;5104565;27;20036;-63
2023/07/19 03:44:17;;;;;;;12.15;6.68;;;15.70;99.90;;;;;;5092913;28;20031;-63
2023/07/19 03:46:43;;;;;;;11.25;6.35;;;15.70;99.90;;;;;;5072278;28;20851;-65
2023/07/19 03:49:08;;;;;;;10.57;6.95;;;15.70;99.90;;;;;;5117489;27;20030;-64
2023/07/19 03:51:34;;;;;;;12.55;6.43;;;15.70;99.90;;;;;;5107149;27;20448;-64
2023/07/19 03:54:00;;;;;;;12.07;7.20;;;15.70;99.90;;;;;;5105427;27;20141;-64
2023/07/19 03:56:26;;;;;;;13.50;6.80;;;15.70;99.90;;;;;;5124892;27;20039;-62
2023/07/19 03:58:51;;;;;;;13.13;7.20;;;15.70;99.90;;;;;;5124316;27;20151;-63
2023/07/19 04:01:17;;;;;;;14.10;7.05;;;15.70;99.90;;;;;;5105175;27;20055;-63
2023/07/19 04:03:43;;;;;;;13.15;7.55;;;15.70;99.90;;;;;;5125065;27;20047;-63
2023/07/19 04:06:09;;;;;;;12.10;7.43;;;15.70;99.90;;;;;;5105908;27;20038;-63
2023/07/19 04:08:35;;;;;;;12.77;7.50;;;15.70;99.90;;;;;;5090309;27;20043;-63
2023/07/19 04:11:01;;;;;;;18.65;7.88;;;15.70;99.90;;;;;;5104940;27;20051;-63
2023/07/19 04:13:27;;;;;;;14.63;7.50;;;15.70;99.90;;;;;;5105804;27;20342;-65
2023/07/19 04:15:52;;;;;;;11.63;7.18;;;15.70;99.90;;;;;;5099877;27;20114;-65
2023/07/19 04:18:19;;;;;;;13.55;8.25;;;15.70;99.90;;;;;;5123914;27;20031;-65
2023/07/19 04:20:44;;;;;;;13.95;8.05;;;15.80;99.90;;;;;;5076629;28;20079;-64
2023/07/19 04:23:10;;;;;;;15.07;7.90;;;15.80;99.90;;;;;;5086909;28;20140;-64
2023/07/19 04:25:36;;;;;;;14.57;8.02;;;15.80;99.90;;;;;;5068816;28;20090;-63
2023/07/19 04:28:02;;;;;;;13.88;8.45;;;15.80;99.90;;;;;;5099780;27;20089;-65
2023/07/19 04:30:28;;;;;;;12.32;8.07;;;15.80;99.90;;;;;;5088129;27;20096;-63
2023/07/19 04:32:55;;;;;;;14.20;8.27;;;15.80;99.90;;;;;;5091321;27;20043;-63
2023/07/19 04:35:22;;;;;;;14.98;8.30;;;15.80;99.90;;;;;;5105869;27;20047;-65
2023/07/19 04:37:49;;;;;;;15.02;7.93;;;15.90;99.90;;;;;;5106574;27;20109;-62
2023/07/19 04:40:16;;;;;;;14.80;8.68;;;15.90;99.90;;;;;;5106602;28;20045;-63
2023/07/19 04:42:42;;;;;;;10.40;7.70;;;15.90;99.90;;;;;;5106185;28;20035;-62
2023/07/19 04:45:08;;;;;;;12.85;8.27;;;15.90;99.90;;;;;;5105429;28;20042;-64
2023/07/19 04:47:36;;;;;;;13.93;8.88;;;15.90;99.90;;;;;;5124926;28;20249;-64
2023/07/19 04:50:08;;;;;;;12.55;7.97;;;16.00;99.90;;;;;;5123583;28;20039;-63
2023/07/19 04:52:35;;;;;;;17.63;8.75;;;15.90;99.90;;;;;;5089825;28;20111;-65
2023/07/19 04:55:04;;;;;;;16.25;8.90;;;16.00;99.90;;;;;;5124811;28;20443;-63
2023/07/19 04:57:30;;;;;;;16.40;8.73;;;16.00;99.90;;;;;;5122356;28;20118;-63
2023/07/19 04:59:56;;;;;;;16.75;8.45;;;16.00;99.90;;;;;;5086866;28;20192;-63
2023/07/19 05:02:22;;;;;;;15.05;8.88;;;16.00;99.90;;;;;;5110640;28;20048;-62
2023/07/19 05:04:48;;;;;;;14.48;8.35;;;16.10;99.90;;;;;;5108524;28;20646;-65
2023/07/19 05:07:14;;;;;;;16.45;9.27;;;16.10;99.90;;;;;;5085918;28;20397;-65
2023/07/19 05:09:44;;;;;;;15.07;9.07;;;16.10;99.90;;;;;;5085763;28;20048;-62
2023/07/19 05:12:10;;;;;;;15.10;8.88;;;16.20;99.90;;;;;;5088861;28;20039;-65
2023/07/19 05:14:36;;;;;;;15.75;8.65;;;16.20;99.90;;;;;;5096382;28;20043;-64
2023/07/19 05:17:01;;;;;;;17.20;8.48;;;16.20;99.90;;;;;;5081623;27;20038;-65
2023/07/19 05:19:27;;;;;;;15.27;8.45;;;16.30;99.90;;;;;;5108380;27;20113;-64
2023/07/19 05:21:53;;;;;;;15.82;8.13;;;16.30;99.90;;;;;;5100103;28;20048;-65
2023/07/19 05:24:19;;;;;;;17.20;9.43;;;16.30;99.90;;;;;;5095414;28;20275;-65
2023/07/19 05:26:46;;;;;;;14.98;8.68;;;16.30;99.90;;;;;;5086415;27;20046;-63
2023/07/19 05:29:11;;;;;;;13.27;7.93;;;16.40;99.90;;;;;;5073234;28;20134;-67
2023/07/19 05:31:37;;;;;;;12.80;7.88;;;16.40;99.90;;;;;;5099492;27;20107;-64
2023/07/19 05:34:03;;;;;;;14.50;8.38;;;16.50;99.90;;;;;;5099214;28;20374;-63
2023/07/19 05:36:29;;;;;;;13.20;7.30;;;16.50;99.90;;;;;;5113131;27;20137;-64
2023/07/19 05:38:55;;;;;;;12.13;6.88;;;16.50;99.90;;;;;;5121860;27;20643;-63
2023/07/19 05:41:20;;;;;;;14.32;6.40;;;16.50;99.90;;;;;;5118234;27;20035;-64
2023/07/19 05:43:46;;;;;;;11.93;6.82;;;16.50;99.90;;;;;;5105560;28;20217;-67
2023/07/19 05:46:12;;;;;;;13.38;6.97;;;16.50;99.90;;;;;;5102210;27;20050;-66
2023/07/19 05:48:38;;;;;;;10.77;6.70;;;16.50;99.90;;;;;;5127875;27;20047;-63
2023/07/19 05:51:05;;;;;;;11.10;6.72;;;16.60;99.90;;;;;;5126311;27;20050;-67
2023/07/19 05:53:31;;;;;;;11.50;6.13;;;16.60;99.90;;;;;;5105900;27;20042;-63
2023/07/19 05:55:57;;;;;;;13.98;6.72;;;16.60;99.90;;;;;;5116745;27;20028;-65
2023/07/19 05:58:23;;;;;;;14.05;6.30;;;16.60;99.90;;;;;;5105607;27;20626;-65
2023/07/19 06:00:49;;;;;;;14.00;6.88;;;16.60;99.90;;;;;;5120277;27;20040;-66
2023/07/19 06:03:16;;;;;;;14.13;6.88;;;16.60;99.90;;;;;;5116439;27;20046;-65
2023/07/19 06:05:45;;;;;;;11.02;6.13;;;16.60;99.90;;;;;;5090772;27;20035;-66
2023/07/19 06:08:12;;;;;;;12.27;6.90;;;16.60;99.90;;;;;;5077676;28;20079;-65
2023/07/19 06:10:38;;;;;;;14.63;6.80;;;16.60;99.90;;;;;;5070789;28;20050;-65
2023/07/19 06:13:04;;;;;;;14.60;6.47;;;16.60;99.90;;;;;;5084793;27;20047;-65
2023/07/19 06:15:33;;;;;;;10.35;6.22;;;16.60;99.90;;;;;;5126836;27;20031;-63
2023/07/19 06:18:00;;;;;;;14.32;6.40;;;16.60;99.90;;;;;;5109757;27;20039;-63
2023/07/19 06:20:25;;;;;;;13.30;6.55;;;16.60;99.90;;;;;;5108708;27;20042;-66
2023/07/19 06:22:51;;;;;;;10.23;6.57;;;16.60;99.90;;;;;;5127982;27;20039;-66
2023/07/19 06:25:17;;;;;;;13.82;6.85;;;16.60;99.90;;;;;;5090977;27;20039;-66
2023/07/19 06:27:43;;;;;;;12.18;6.80;;;16.70;99.90;;;;;;5105539;28;20421;-63
2023/07/19 06:30:10;;;;;;;14.05;6.63;;;16.70;99.90;;;;;;5072743;27;20039;-65
2023/07/19 06:32:36;;;;;;;10.90;6.45;;;16.60;99.90;;;;;;5105471;27;20083;-63
2023/07/19 06:35:07;;;;;;;12.93;6.68;;;16.60;99.90;;;;;;5115341;27;20494;-64
2023/07/19 06:37:33;;;;;;;12.13;6.85;;;16.60;99.90;;;;;;5078784;28;20497;-66
2023/07/19 06:40:02;;;;;;;13.40;7.07;;;16.60;99.90;;;;;;5070429;28;20195;-64
2023/07/19 06:42:28;;;;;;;12.95;7.30;;;16.60;99.90;;;;;;5121092;27;20050;-66
2023/07/19 06:44:53;;;;;;;12.30;6.78;;;16.60;99.90;;;;;;5126197;27;20043;-66
2023/07/19 06:47:19;;;;;;;14.57;6.32;;;16.60;99.90;;;;;;5108008;27;20039;-64
2023/07/19 06:49:45;;;;;;;11.43;7.07;;;16.60;99.90;;;;;;5108188;27;20169;-63
2023/07/19 06:52:11;;;;;;;12.50;6.95;;;16.60;99.90;;;;;;5089593;28;20632;-64
2023/07/19 06:54:36;;;;;;;12.32;6.32;;;16.60;99.90;;;;;;5090898;27;20046;-63
2023/07/19 06:57:02;;;;;;;12.27;6.57;;;16.60;99.90;;;;;;5124609;27;20039;-63
2023/07/19 06:59:28;;;;;;;68.72;10.32;;;16.70;99.90;;;;;;5115979;27;20035;-64
2023/07/19 07:01:54;;;;;;;18.52;6.50;;;16.70;99.90;;;;;;5088810;27;20061;-65
2023/07/19 07:04:19;;;;;;;16.25;6.93;;;16.70;99.90;;;;;;5106904;27;20038;-65
2023/07/19 07:06:45;;;;;;;12.20;6.53;;;16.70;99.90;;;;;;5108224;27;20126;-63
2023/07/19 07:09:11;;;;;;;12.43;6.57;;;16.70;99.90;;;;;;5106189;27;20043;-63
2023/07/19 07:11:37;;;;;;;14.35;6.20;;;16.70;99.90;;;;;;5088534;27;20054;-64
2023/07/19 07:14:02;;;;;;;12.52;6.00;;;16.80;99.90;;;;;;5107199;27;20056;-65
2023/07/19 07:16:28;;;;;;;11.00;5.85;;;16.80;99.90;;;;;;5107075;27;20039;-64
2023/07/19 07:18:54;;;;;;;9.57;5.30;;;16.90;99.90;;;;;;5107061;27;20053;-63
2023/07/19 07:21:20;;;;;;;13.85;6.18;;;16.90;99.90;;;;;;5106390;27;20047;-63
2023/07/19 07:23:45;;;;;;;12.98;4.50;;;17.00;99.90;;;;;;5090063;27;20043;-64
2023/07/19 07:26:11;;;;;;;9.18;3.90;;;17.00;99.90;;;;;;5125508;27;20084;-65
2023/07/19 07:28:37;;;;;;;9.43;3.40;;;17.00;99.90;;;;;;5125101;27;20035;-64
2023/07/19 07:31:06;;;;;;;10.25;3.53;;;17.00;99.90;;;;;;5124366;27;20031;-66
2023/07/19 07:33:32;;;;;;;7.05;3.00;;;17.10;99.90;;;;;;5124692;27;20669;-69
2023/07/19 07:35:57;;;;;;;9.52;2.80;;;17.10;99.90;;;;;;5124683;27;20039;-67
2023/07/19 07:38:23;;;;;;;11.13;2.53;;;17.10;99.90;;;;;;5125274;27;20027;-67
2023/07/19 07:40:48;;;;;;;8.70;2.10;;;17.10;99.90;;;;;;5124566;27;20031;-67
2023/07/19 07:43:14;;;;;;;9.13;2.10;;;17.10;99.90;;;;;;5088576;27;20039;-68
2023/07/19 07:45:40;;;;;;;9.02;2.67;;;17.20;99.90;;;;;;5107020;27;20043;-66
2023/07/19 07:48:05;;;;;;;6.65;2.47;;;17.20;99.90;;;;;;5106400;27;20035;-67
2023/07/19 07:50:31;;;;;;;10.43;3.22;;;17.30;99.90;;;;;;5125367;27;20051;-69
2023/07/19 07:52:57;;;;;;;20.60;4.10;;;17.30;99.90;;;;;;5090102;27;20039;-68
2023/07/19 07:55:22;;;;;;;7.95;2.55;;;17.40;99.90;;;;;;5106608;27;20027;-65
2023/07/19 07:57:48;;;;;;;8.05;2.67;;;17.40;99.90;;;;;;5112116;27;20031;-68
2023/07/19 08:00:15;;;;;;;14.90;3.20;;;17.40;99.90;;;;;;5073578;27;20039;-68
2023/07/19 08:02:41;;;;;;;7.43;2.20;;;17.50;99.90;;;;;;5125564;27;20063;-66
2023/07/19 08:05:07;;;;;;;5.15;2.00;;;17.50;99.90;;;;;;5088731;27;20053;-67
2023/07/19 08:07:32;;;;;;;20.75;3.65;;;17.50;99.90;;;;;;5069698;28;20179;-65
2023/07/19 08:09:58;;;;;;;41.00;6.35;;;17.60;99.90;;;;;;5096663;27;20135;-65
2023/07/19 08:12:24;;;;;;;8.30;2.78;;;17.60;99.90;;;;;;5104543;27;20117;-67
2023/07/19 08:14:50;;;;;;;60.15;8.38;;;17.70;99.90;;;;;;5124917;27;20050;-67
2023/07/19 08:17:15;;;;;;;18.45;3.45;;;17.80;99.90;;;;;;5107086;27;20482;-69
2023/07/19 08:19:41;;;;;;;6.60;2.17;;;17.80;99.90;;;;;;5105625;27;20031;-66
2023/07/19 08:22:07;;;;;;;5.05;1.77;;;17.90;99.90;;;;;;5106421;27;20090;-67
2023/07/19 08:24:33;;;;;;;6.63;2.15;;;18.00;99.90;;;;;;5106832;27;20455;-70
2023/07/19 08:26:58;;;;;;;6.38;1.90;;;18.00;99.90;;;;;;5104396;27;20035;-67
2023/07/19 08:29:27;;;;;;;7.00;1.50;;;18.20;99.90;;;;;;5106719;27;20088;-68
2023/07/19 08:31:52;;;;;;;6.93;2.13;;;18.10;99.90;;;;;;5124063;27;20424;-71
2023/07/19 08:34:19;;;;;;;7.22;2.05;;;18.20;99.90;;;;;;5089380;27;20031;-68
2023/07/19 08:36:45;;;;;;;5.70;1.80;;;18.20;99.90;;;;;;5105826;27;20050;-68
2023/07/19 08:39:11;;;;;;;5.53;1.65;;;18.20;99.90;;;;;;5124525;27;20054;-68
2023/07/19 08:41:37;;;;;;;6.25;2.40;;;18.20;99.90;;;;;;5105001;27;20398;-64
2023/07/19 08:44:04;;;;;;;7.65;2.10;;;18.20;99.90;;;;;;5106146;28;20451;-68
2023/07/19 08:46:32;;;;;;;7.32;1.80;;;18.20;99.90;;;;;;5088832;28;20096;-68
2023/07/19 08:48:59;;;;;;;9.82;2.22;;;18.20;99.90;;;;;;5106233;28;20574;-70
2023/07/19 08:51:26;;;;;;;12.52;2.33;;;18.30;99.90;;;;;;5087993;27;20047;-65
2023/07/19 08:53:52;;;;;;;6.75;2.00;;;18.30;99.90;;;;;;5129047;27;20285;-65
2023/07/19 08:56:18;;;;;;;5.85;1.80;;;18.30;99.90;;;;;;5110032;27;20043;-67
2023/07/19 08:58:44;;;;;;;7.32;2.20;;;18.30;99.90;;;;;;5109077;27;20041;-67
2023/07/19 09:01:11;;;;;;;5.85;1.70;;;18.30;99.90;;;;;;5109345;27;20169;-68
2023/07/19 09:03:37;;;;;;;5.25;1.83;;;18.30;99.90;;;;;;5128567;27;20111;-66
2023/07/19 09:06:03;;;;;;;8.45;1.80;;;18.30;99.90;;;;;;5109515;27;20045;-67
2023/07/19 09:08:40;;;;;;;8.25;1.70;;;18.30;99.90;;;;;;5093191;27;20403;-65
2023/07/19 09:11:06;;;;;;;5.32;1.75;;;18.30;99.90;;;;;;5108513;27;20086;-70
2023/07/19 09:13:35;;;;;;;7.53;2.20;;;18.40;99.90;;;;;;5109257;27;20053;-67
2023/07/19 09:16:02;;;;;;;7.60;2.30;;;18.50;99.90;;;;;;5109462;27;20039;-65
2023/07/19 09:18:36;;;;;;;7.88;1.95;;;18.60;99.90;;;;;;5110226;27;20071;-67
2023/07/19 09:21:04;;;;;;;5.45;1.80;;;18.70;99.90;;;;;;5102357;27;20093;-68
2023/07/19 09:23:36;;;;;;;7.57;2.10;;;18.90;99.90;;;;;;5107389;27;20749;-67
2023/07/19 09:26:04;;;;;;;7.07;1.60;;;19.00;99.90;;;;;;5071509;28;20091;-70
2023/07/19 09:28:30;;;;;;;6.90;1.92;;;19.20;99.90;;;;;;5106081;27;20068;-68
2023/07/19 09:31:03;;;;;;;3.97;1.30;;;19.30;99.90;;;;;;5102029;27;20039;-68
2023/07/19 09:33:29;;;;;;;6.57;1.60;;;19.50;99.90;;;;;;5092361;27;20091;-68
2023/07/19 09:35:55;;;;;;;4.20;1.45;;;19.60;99.90;;;;;;5093293;27;20031;-64
2023/07/19 09:38:22;;;;;;;11.55;1.63;;;19.80;99.90;;;;;;5109414;27;20038;-67
2023/07/19 09:40:50;;;;;;;4.25;1.50;;;19.80;99.90;;;;;;5108782;27;20035;-68
2023/07/19 09:43:16;;;;;;;7.07;1.67;;;19.80;99.90;;;;;;5107960;27;20451;-65
2023/07/19 09:45:45;;;;;;;6.18;1.40;;;19.80;99.90;;;;;;5108197;27;20138;-67
2023/07/19 09:48:12;;;;;;;8.20;1.60;;;19.90;99.90;;;;;;5109793;27;20075;-70
2023/07/19 09:50:41;;;;;;;8.35;1.70;;;19.90;99.90;;;;;;5125769;27;20498;-68
2023/07/19 09:53:13;;;;;;;5.38;1.55;;;19.90;99.90;;;;;;5108492;27;20126;-69
2023/07/19 09:55:39;;;;;;;9.05;1.90;;;19.90;99.90;;;;;;5108598;27;20069;-69
2023/07/19 09:58:11;;;;;;;5.95;1.90;;;19.90;99.90;;;;;;5090806;27;20542;-69
2023/07/19 10:00:37;;;;;;;5.68;1.48;;;19.80;99.90;;;;;;5107549;27;20558;-68
2023/07/19 10:03:06;;;;;;;5.40;1.38;;;19.90;99.90;;;;;;5109032;27;20129;-68
2023/07/19 10:05:31;;;;;;;8.52;2.55;;;20.00;99.90;;;;;;5127514;27;20043;-68
2023/07/19 10:08:05;;;;;;;5.35;1.52;;;20.00;99.90;;;;;;5126823;27;20558;-67
2023/07/19 10:10:41;;;;;;;5.05;1.35;;;20.00;99.90;;;;;;5107798;27;20035;-73
2023/07/19 10:13:07;;;;;;;6.78;1.70;;;19.90;99.90;;;;;;5107335;27;20042;-66
2023/07/19 10:15:35;;;;;;;7.15;2.13;;;19.80;99.90;;;;;;5091816;27;20071;-68
2023/07/19 10:18:02;;;;;;;6.63;1.63;;;19.80;99.90;;;;;;5092327;27;20438;-68
2023/07/19 10:20:35;;;;;;;7.32;1.63;;;19.70;99.90;;;;;;5107114;27;20047;-68
2023/07/19 10:23:04;;;;;;;8.40;1.95;;;19.70;99.90;;;;;;5071814;28;20666;-67
2023/07/19 10:25:38;;;;;;;6.57;1.80;;;19.60;99.90;;;;;;5093687;27;20038;-68
2023/07/19 10:28:12;;;;;;;7.63;2.05;;;19.60;99.90;;;;;;5089862;27;20597;-67
2023/07/19 10:30:54;;;;;;;7.40;1.70;;;19.60;99.90;;;;;;5107786;27;20050;-67
2023/07/19 10:33:31;;;;;;;5.85;1.50;;;19.50;99.90;;;;;;5109034;27;20126;-67
2023/07/19 10:36:03;;;;;;;6.65;1.70;;;19.50;99.90;;;;;;5108530;27;20081;-66
2023/07/19 10:38:30;;;;;;;5.85;2.05;;;19.50;99.90;;;;;;5091304;27;20039;-66
2023/07/19 10:41:07;;;;;;;8.82;1.90;;;19.50;99.90;;;;;;5125183;27;20047;-65
2023/07/19 10:43:35;;;;;;;5.47;1.63;;;19.50;99.90;;;;;;5107806;27;20438;-68
2023/07/19 10:46:05;;;;;;;8.93;2.05;;;19.50;99.90;;;;;;5107503;27;20505;-67
2023/07/19 10:48:32;;;;;;;8.70;1.60;;;19.50;99.90;;;;;;5108202;27;20054;-68
2023/07/19 10:50:59;;;;;;;6.18;1.92;;;19.50;99.90;;;;;;5107021;27;20494;-68
2023/07/19 10:53:25;;;;;;;9.25;1.90;;;19.50;99.90;;;;;;5126995;27;20818;-68
2023/07/19 10:55:55;;;;;;;16.55;3.38;;;19.60;99.90;;;;;;5108228;27;20498;-67
2023/07/19 10:58:21;;;;;;;6.13;1.58;;;19.50;99.90;;;;;;5107151;27;20126;-66
2023/07/19 11:00:48;;;;;;;6.05;2.05;;;19.40;99.90;;;;;;5089860;27;20122;-65
2023/07/19 11:03:14;;;;;;;6.05;1.85;;;19.40;99.90;;;;;;5090799;27;20112;-66
2023/07/19 11:05:47;;;;;;;5.25;1.52;;;19.50;99.90;;;;;;5107251;27;20457;-66
2023/07/19 11:08:23;;;;;;;8.23;2.42;;;19.60;99.90;;;;;;5107823;27;20085;-68
2023/07/19 11:10:50;;;;;;;5.55;1.50;;;19.80;99.90;;;;;;5107224;27;20088;-66
2023/07/19 11:13:17;;;;;;;6.13;1.98;;;20.00;99.90;;;;;;5089813;27;20031;-64
2023/07/19 11:15:48;;;;;;;5.55;1.60;;;20.10;99.90;;;;;;5089748;27;20039;-66
2023/07/19 11:18:28;;;;;;;4.82;1.30;;;20.20;99.90;;;;;;5126655;27;20949;-63
2023/07/19 11:20:57;;;;;;;7.07;1.70;;;20.30;99.90;;;;;;5106124;27;20037;-66
2023/07/19 11:23:23;;;;;;;4.03;1.20;;;20.40;99.90;;;;;;5090846;27;20112;-67
2023/07/19 11:25:49;;;;;;;8.80;1.90;;;20.40;99.90;;;;;;5124335;27;20066;-64
2023/07/19 11:28:46;;;;;;;52.53;14.90;;;20.50;99.90;;;;;;5106158;27;20038;-62
2023/07/19 11:31:35;;;;;;;7.22;1.60;;;20.70;99.90;;;;;;5106088;27;20049;-64
2023/07/19 11:34:12;;;;;;;5.45;1.30;;;20.80;99.90;;;;;;5107025;27;20046;-64
2023/07/19 11:36:42;;;;;;;4.22;1.58;;;20.70;99.90;;;;;;5090571;27;20038;-63
2023/07/19 11:39:20;;;;;;;4.88;1.50;;;20.80;99.90;;;;;;5106392;27;20046;-64
2023/07/19 11:41:46;;;;;;;12.40;1.80;;;20.90;99.90;;;;;;5122538;27;20085;-66
2023/07/19 11:44:21;;;;;;;4.10;1.20;;;21.00;99.90;;;;;;5108215;27;20043;-63
2023/07/19 11:46:47;;;;;;;7.22;1.30;;;21.10;99.90;;;;;;5107447;27;20054;-66
2023/07/19 11:49:13;;;;;;;5.53;1.25;;;21.10;99.90;;;;;;5122759;27;20047;-65
2023/07/19 11:51:39;;;;;;;6.88;1.20;;;21.20;99.90;;;;;;5106800;27;20091;-67
2023/07/19 11:54:06;;;;;;;4.00;1.30;;;21.20;99.90;;;;;;5123637;27;20043;-65
2023/07/19 11:56:32;;;;;;;8.65;2.13;;;21.20;99.90;;;;;;5106037;27;20073;-65
2023/07/19 11:58:57;;;;;;;4.90;1.10;;;21.10;99.90;;;;;;5106545;27;20497;-65
2023/07/19 12:01:25;;;;;;;4.97;1.23;;;21.00;99.90;;;;;;5124027;27;20059;-63
2023/07/19 12:03:50;;;;;;;3.72;1.10;;;21.00;99.90;;;;;;5125538;27;20492;-64
2023/07/19 12:06:16;;;;;;;4.68;1.00;;;21.10;99.90;;;;;;5106152;27;20046;-65
2023/07/19 12:08:41;;;;;;;4.63;1.25;;;21.20;99.90;;;;;;5106566;27;20043;-63
2023/07/19 12:11:08;;;;;;;7.00;1.20;;;21.20;99.90;;;;;;5124344;27;20083;-65
2023/07/19 12:13:35;;;;;;;5.18;1.20;;;21.10;99.90;;;;;;5105847;27;20363;-64
2023/07/19 12:16:01;;;;;;;5.15;1.30;;;21.00;99.90;;;;;;5106097;27;20035;-65
2023/07/19 12:18:28;;;;;;;4.32;1.20;;;21.00;99.90;;;;;;5125705;27;20425;-64
2023/07/19 12:20:54;;;;;;;3.22;1.10;;;21.20;99.90;;;;;;5105079;27;20073;-67
2023/07/19 12:23:19;;;;;;;4.93;1.30;;;21.20;99.90;;;;;;5107121;27;20489;-63
2023/07/19 12:25:45;;;;;;;4.60;1.25;;;21.30;99.90;;;;;;5105961;27;20058;-66
2023/07/19 12:28:11;;;;;;;5.95;1.58;;;21.30;99.90;;;;;;5105300;28;20042;-66
2023/07/19 12:30:38;;;;;;;4.50;1.10;;;21.40;99.90;;;;;;5088453;27;20039;-64
2023/07/19 12:33:04;;;;;;;5.22;1.13;;;21.40;99.90;;;;;;5090280;28;20039;-65
2023/07/19 12:35:29;;;;;;;5.78;1.33;;;21.30;99.90;;;;;;5089669;27;20645;-66
2023/07/19 12:37:55;;;;;;;5.22;1.35;;;21.20;99.90;;;;;;5105738;27;20054;-63